Time;durP1;ratioP1;P1;durP2;ratioP2;P2;SDS_P1;SDS_P2;PMS_P1;PMS_P2;Temp;Humidity;BMP_temperature;BMP_pressure;BME280_temperature;BME280_humidity;BME280_pressure;Samples;Min_cycle;Max_cycle;Signal;HPM_P1;HPM_P2
2022/04/29 00:00:08;;;;;;;;;33.00;26.00;;;;;15.65;49.03;102344.81;5051410;28;45323;-66
2022/04/29 00:02:35;;;;;;;;;32.50;30.50;;;;;15.60;49.14;102346.66;5050608;28;45844;-66
2022/04/29 00:05:00;;;;;;;;;31.00;28.00;;;;;15.52;51.14;102349.44;5053094;28;45895;-66
2022/04/29 00:07:26;;;;;;;;;27.25;27.00;;;;;15.43;51.76;102347.91;5052335;28;45322;-66
2022/04/29 00:09:51;;;;;;;;;40.75;34.50;;;;;15.35;51.83;102341.06;5050774;28;45853;-66
2022/04/29 00:12:19;;;;;;;;;33.50;26.75;;;;;15.32;50.86;102349.00;5048348;28;45663;-66
2022/04/29 00:14:45;;;;;;;;;35.25;31.00;;;;;15.32;51.24;102343.78;5048184;28;46053;-66
2022/04/29 00:17:11;;;;;;;;;32.25;27.50;;;;;15.32;50.21;102338.53;5049899;28;45490;-64
2022/04/29 00:19:37;;;;;;;;;35.00;31.25;;;;;15.27;51.00;102328.16;5050079;28;45564;-65
2022/04/29 00:22:03;;;;;;;;;34.75;28.25;;;;;15.24;50.79;102320.38;5048814;28;45477;-65
2022/04/29 00:24:28;;;;;;;;;37.50;30.75;;;;;15.19;51.13;102316.97;5049143;28;45370;-65
2022/04/29 00:26:54;;;;;;;;;38.00;31.25;;;;;15.17;52.82;102324.00;5050263;28;45366;-65
2022/04/29 00:29:20;;;;;;;;;37.75;33.75;;;;;15.14;52.46;102322.31;5045367;28;45383;-66
2022/04/29 00:31:45;;;;;;;;;43.25;31.50;;;;;15.10;51.88;102314.56;5049472;28;45346;-65
2022/04/29 00:34:11;;;;;;;;;40.25;33.25;;;;;15.01;51.64;102305.13;5048246;28;45322;-65
2022/04/29 00:36:37;;;;;;;;;32.75;27.00;;;;;15.02;51.40;102309.50;5045165;28;45581;-64
2022/04/29 00:39:03;;;;;;;;;35.75;31.25;;;;;15.02;51.90;102311.25;5040834;28;45552;-65
2022/04/29 00:41:28;;;;;;;;;37.75;29.25;;;;;15.00;52.32;102308.63;5040559;28;46302;-65
2022/04/29 00:44:08;;;;;;;;;32.50;29.75;;;;;14.99;52.00;102312.16;5037994;28;46662;-64
2022/04/29 00:46:36;;;;;;;;;41.00;31.25;;;;;14.99;51.84;102304.28;5038278;28;45458;-64
2022/04/29 00:49:03;;;;;;;;;38.25;32.00;;;;;14.96;52.11;102301.75;5040850;28;45284;-63
2022/04/29 00:51:29;;;;;;;;;42.50;34.50;;;;;14.95;52.13;102304.41;5039192;28;47142;-64
2022/04/29 00:53:56;;;;;;;;;43.00;31.25;;;;;14.88;51.94;102286.22;5040802;28;45279;-64
2022/04/29 00:56:24;;;;;;;;;44.50;32.00;;;;;14.89;53.05;102300.16;5040729;28;45249;-65
2022/04/29 00:58:58;;;;;;;;;33.75;30.50;;;;;14.84;52.40;102292.41;5040727;28;45490;-64
2022/04/29 01:01:25;;;;;;;;;41.75;34.75;;;;;14.80;52.01;102295.94;5040432;28;46436;-63
2022/04/29 01:03:53;;;;;;;;;42.00;35.75;;;;;14.76;52.28;102285.59;5043378;28;45550;-64
2022/04/29 01:06:18;;;;;;;;;38.25;32.75;;;;;14.76;52.83;102285.59;5042065;28;45364;-63
2022/04/29 01:08:44;;;;;;;;;41.50;33.00;;;;;14.73;52.88;102288.28;5040596;28;45322;-63
2022/04/29 01:11:09;;;;;;;;;37.50;31.25;;;;;14.69;53.58;102279.63;5040096;28;45391;-63
2022/04/29 01:13:35;;;;;;;;;40.75;30.75;;;;;14.68;53.45;102284.88;5040178;28;45414;-64
2022/04/29 01:16:00;;;;;;;;;31.50;28.25;;;;;14.65;53.69;102274.50;5038955;28;45318;-64
2022/04/29 01:18:27;;;;;;;;;35.50;29.25;;;;;14.63;53.42;102273.66;5040182;28;45303;-64
2022/04/29 01:21:04;;;;;;;;;44.50;33.00;;;;;14.65;52.69;102275.34;5038819;28;47384;-64
2022/04/29 01:23:31;;;;;;;;;38.00;31.50;;;;;14.60;52.98;102267.56;5040191;28;45930;-64
2022/04/29 01:25:56;;;;;;;;;39.25;25.25;;;;;14.58;52.91;102268.50;5038779;28;45317;-63
2022/04/29 01:28:23;;;;;;;;;37.75;33.00;;;;;14.57;53.40;102265.00;5040002;28;45399;-63
2022/04/29 01:30:51;;;;;;;;;35.00;29.75;;;;;14.54;52.80;102264.22;5039949;28;46042;-63
2022/04/29 01:33:18;;;;;;;;;36.75;29.25;;;;;14.50;53.30;102266.03;5038704;28;45214;-63
2022/04/29 01:35:43;;;;;;;;;21.25;19.00;;;;;14.47;52.60;102260.00;5040003;28;45214;-63
2022/04/29 01:38:08;;;;;;;;;43.50;33.75;;;;;14.42;54.07;102262.69;5040160;28;45305;-63
2022/04/29 01:40:34;;;;;;;;;46.50;32.00;;;;;14.39;53.76;102267.09;5039720;28;46457;-63
2022/04/29 01:42:59;;;;;;;;;45.25;33.00;;;;;14.34;54.08;102269.78;5039681;28;45418;-63
2022/04/29 01:45:24;;;;;;;;;40.25;32.00;;;;;14.34;52.89;102271.56;5040033;28;45227;-63
2022/04/29 01:47:50;;;;;;;;;27.25;22.50;;;;;14.30;54.02;102276.84;5039716;28;45299;-63
2022/04/29 01:50:15;;;;;;;;;40.00;31.50;;;;;14.25;54.28;102268.22;5039865;28;45422;-63
2022/04/29 01:52:40;;;;;;;;;38.00;33.00;;;;;14.25;53.65;102280.44;5037449;28;45335;-63
2022/04/29 01:55:06;;;;;;;;;42.00;34.75;;;;;14.20;54.03;102269.19;5038273;28;45350;-63
2022/04/29 01:57:31;;;;;;;;;23.50;22.75;;;;;14.19;53.95;102270.06;5038286;28;45292;-63
2022/04/29 01:59:57;;;;;;;;;35.25;29.00;;;;;14.17;55.36;102280.56;5039759;28;46261;-63
2022/04/29 02:02:23;;;;;;;;;41.75;33.25;;;;;14.14;53.66;102271.91;5038917;28;45755;-64
2022/04/29 02:04:48;;;;;;;;;35.75;31.25;;;;;14.10;53.88;102276.34;5036417;28;45713;-64
2022/04/29 02:07:14;;;;;;;;;38.75;31.50;;;;;14.10;55.25;102280.69;5037924;28;45383;-64
2022/04/29 02:09:39;;;;;;;;;34.00;32.50;;;;;14.08;54.94;102277.25;5037984;28;45331;-64
2022/04/29 02:12:05;;;;;;;;;44.25;36.00;;;;;14.08;56.50;102287.72;5038064;28;45285;-64
2022/04/29 02:14:35;;;;;;;;;37.75;31.50;;;;;14.04;55.96;102283.44;5038245;28;45320;-64
2022/04/29 02:17:02;;;;;;;;;38.50;30.75;;;;;14.01;55.51;102286.94;5037850;28;45544;-64
2022/04/29 02:19:28;;;;;;;;;34.25;26.75;;;;;13.98;57.05;102293.09;5036382;28;46346;-63
2022/04/29 02:21:54;;;;;;;;;35.50;30.75;;;;;13.98;55.48;102292.22;5045595;28;45945;-63
2022/04/29 02:24:19;;;;;;;;;47.75;35.75;;;;;13.97;54.91;102288.75;5049113;28;45197;-64
2022/04/29 02:26:45;;;;;;;;;41.50;33.25;;;;;13.96;55.57;102283.53;5050102;28;45255;-64
2022/04/29 02:29:10;;;;;;;;;52.00;31.75;;;;;13.97;55.29;102295.72;5050417;28;45226;-64
2022/04/29 02:31:35;;;;;;;;;40.00;33.75;;;;;13.96;55.20;102294.88;5042941;28;45387;-64
2022/04/29 02:34:01;;;;;;;;;38.00;34.50;;;;;13.94;56.48;102301.88;5049012;28;45300;-64
2022/04/29 02:36:27;;;;;;;;;44.00;36.75;;;;;13.93;54.91;102300.16;5051266;28;45286;-65
2022/04/29 02:38:52;;;;;;;;;41.00;35.00;;;;;13.90;56.62;102291.50;5052218;28;45554;-65
2022/04/29 02:41:18;;;;;;;;;40.00;35.25;;;;;13.91;56.01;102298.44;5052258;28;45269;-64
2022/04/29 02:43:44;;;;;;;;;34.75;31.00;;;;;13.89;57.05;102292.38;5042976;28;45236;-64
2022/04/29 02:46:09;;;;;;;;;39.75;34.75;;;;;13.87;55.98;102288.94;5042822;28;46190;-64
2022/04/29 02:48:35;;;;;;;;;40.00;30.00;;;;;13.90;56.64;102299.34;5042276;28;46355;-64
2022/04/29 02:51:01;;;;;;;;;33.75;28.50;;;;;13.84;57.55;102295.09;5042686;28;45465;-64
2022/04/29 02:53:28;;;;;;;;;37.00;31.75;;;;;13.88;56.33;102296.75;5039805;28;45346;-65
2022/04/29 02:55:53;;;;;;;;;36.25;28.00;;;;;13.82;56.55;102293.38;5040993;28;45801;-65
2022/04/29 02:58:18;;;;;;;;;43.75;35.00;;;;;13.81;56.22;102294.25;5042346;28;46420;-66
2022/04/29 03:00:44;;;;;;;;;44.50;31.50;;;;;13.82;55.86;102301.22;5042398;28;45383;-66
2022/04/29 03:03:09;;;;;;;;;35.50;32.00;;;;;13.79;56.33;102286.44;5045169;28;45268;-66
2022/04/29 03:05:34;;;;;;;;;41.75;30.75;;;;;13.79;55.96;102278.59;5045033;28;45276;-66
2022/04/29 03:08:00;;;;;;;;;37.50;27.25;;;;;13.82;55.82;102280.31;5042198;28;46439;-67
2022/04/29 03:10:25;;;;;;;;;30.75;22.75;;;;;13.85;55.81;102291.59;5040880;28;45659;-66
2022/04/29 03:12:52;;;;;;;;;35.00;30.75;;;;;13.81;57.06;102294.25;5040934;28;45253;-66
2022/04/29 03:15:18;;;;;;;;;43.75;35.50;;;;;13.78;56.34;102292.53;5041904;28;45287;-66
2022/04/29 03:20:34;;;;;;;;;36.50;31.75;;;;;13.70;57.82;102283.97;5049288;28;45844;-66
2022/04/29 03:22:59;;;;;;;;;35.75;31.50;;;;;13.66;57.00;102280.56;5043206;28;45336;-66
2022/04/29 03:25:24;;;;;;;;;42.50;32.75;;;;;13.67;56.88;102284.03;5039485;28;45382;-66
2022/04/29 03:27:50;;;;;;;;;45.50;35.75;;;;;13.68;57.01;102283.16;5039228;28;45331;-66
2022/04/29 03:30:15;;;;;;;;;45.75;33.00;;;;;13.67;56.84;102273.59;5039399;28;45273;-65
2022/04/29 03:32:40;;;;;;;;;38.75;32.50;;;;;13.69;56.68;102280.50;5039492;28;45276;-65
2022/04/29 03:35:06;;;;;;;;;47.75;33.75;;;;;13.66;56.97;102277.94;5039342;28;45450;-65
2022/04/29 03:37:32;;;;;;;;;40.25;31.75;;;;;13.60;57.24;102278.00;5039236;28;46508;-64
2022/04/29 03:39:57;;;;;;;;;38.75;29.75;;;;;13.55;57.57;102271.16;5040797;28;45461;-64
2022/04/29 03:42:22;;;;;;;;;35.00;30.00;;;;;13.54;56.77;102262.44;5041642;28;45385;-65
2022/04/29 03:44:48;;;;;;;;;43.25;35.50;;;;;13.52;56.98;102264.22;5044147;28;45217;-66
2022/04/29 03:47:13;;;;;;;;;41.00;31.50;;;;;13.51;57.63;102267.72;5042876;28;45219;-64
2022/04/29 03:49:38;;;;;;;;;42.50;32.75;;;;;13.51;57.81;102266.84;5041687;28;45233;-64
2022/04/29 03:52:06;;;;;;;;;39.75;33.00;;;;;13.47;57.31;102258.22;5038672;28;45189;-65
2022/04/29 03:54:35;;;;;;;;;49.50;35.75;;;;;13.46;57.23;102248.66;5039362;28;45462;-66
2022/04/29 03:57:00;;;;;;;;;38.75;35.25;;;;;13.49;56.68;102246.00;5041161;28;46545;-65
2022/04/29 03:59:25;;;;;;;;;37.25;30.00;;;;;13.49;57.11;102251.22;5041502;28;45338;-67
2022/04/29 04:01:51;;;;;;;;;45.25;36.25;;;;;13.41;57.45;102247.84;5050558;28;45171;-65
2022/04/29 04:04:17;;;;;;;;;45.25;36.00;;;;;13.40;56.76;102252.19;5047837;28;45234;-65
2022/04/29 04:06:51;;;;;;;;;44.25;36.00;;;;;13.38;57.94;102247.91;5042331;28;45293;-65
2022/04/29 04:09:21;;;;;;;;;40.50;33.00;;;;;13.33;57.29;102250.56;5041025;28;45442;-65
2022/04/29 04:11:48;;;;;;;;;41.00;34.00;;;;;13.30;57.41;102245.41;5041315;28;45279;-65
2022/04/29 04:14:14;;;;;;;;;37.75;29.00;;;;;13.32;58.15;102248.00;5041215;28;45449;-65
2022/04/29 04:16:40;;;;;;;;;38.25;28.75;;;;;13.28;59.09;102251.53;5040934;28;46288;-65
2022/04/29 04:19:05;;;;;;;;;43.75;35.00;;;;;13.26;58.93;102248.94;5041215;28;45238;-65
2022/04/29 04:21:31;;;;;;;;;41.00;31.75;;;;;13.23;58.21;102243.78;5041315;28;45280;-65
2022/04/29 04:23:56;;;;;;;;;44.25;34.50;;;;;13.27;58.06;102244.59;5039512;28;45740;-65
2022/04/29 04:26:22;;;;;;;;;53.25;35.25;;;;;13.30;58.46;102253.25;5039517;28;47191;-65
2022/04/29 04:28:48;;;;;;;;;43.50;34.50;;;;;13.33;58.18;102249.72;5040514;28;45240;-64
2022/04/29 04:31:14;;;;;;;;;49.25;33.50;;;;;13.32;58.10;102245.38;5040751;28;45403;-65
2022/04/29 04:33:39;;;;;;;;;41.00;32.75;;;;;13.33;58.36;102247.97;5040644;28;45234;-65
2022/04/29 04:36:05;;;;;;;;;38.50;33.00;;;;;13.35;57.91;102246.19;5040429;28;45383;-64
2022/04/29 04:38:31;;;;;;;;;42.50;33.00;;;;;13.36;58.30;102247.06;5043891;28;45364;-63
2022/04/29 04:40:58;;;;;;;;;43.50;32.75;;;;;13.34;58.45;102254.06;5040778;28;45437;-64
2022/04/29 04:43:27;;;;;;;;;47.00;34.75;;;;;13.31;57.82;102239.28;5038941;28;45498;-64
2022/04/29 04:45:53;;;;;;;;;35.50;32.75;;;;;13.35;58.14;102247.94;5039270;28;48051;-63
2022/04/29 04:48:19;;;;;;;;;45.50;33.00;;;;;13.37;58.04;102249.63;5039814;28;45287;-65
2022/04/29 04:50:44;;;;;;;;;41.25;34.00;;;;;13.37;57.36;102243.56;5040653;28;45454;-67
2022/04/29 04:53:10;;;;;;;;;38.75;33.25;;;;;13.40;57.48;102246.97;5039188;28;45585;-67
2022/04/29 04:55:39;;;;;;;;;46.50;32.75;;;;;13.43;57.63;102255.69;5040435;28;46028;-67
2022/04/29 04:58:05;;;;;;;;;43.75;33.75;;;;;13.43;57.57;102253.94;5040038;28;45494;-68
2022/04/29 05:00:31;;;;;;;;;38.25;31.50;;;;;13.40;57.20;102248.72;5040659;28;45319;-67
2022/04/29 05:02:56;;;;;;;;;44.75;29.50;;;;;13.48;57.05;102253.84;5043247;28;45240;-67
2022/04/29 05:05:22;;;;;;;;;44.25;36.00;;;;;13.49;56.50;102259.06;5043820;28;46189;-67
2022/04/29 05:07:47;;;;;;;;;47.50;31.25;;;;;13.47;57.17;102259.97;5040234;28;45171;-67
2022/04/29 05:10:14;;;;;;;;;30.75;24.00;;;;;13.49;56.67;102263.41;5040025;28;45331;-65
2022/04/29 05:12:44;;;;;;;;;32.25;28.25;;;;;13.51;56.52;102265.13;5039874;28;45441;-68
2022/04/29 05:15:11;;;;;;;;;43.00;34.75;;;;;13.52;57.09;102259.00;5040098;28;46445;-67
2022/04/29 05:17:40;;;;;;;;;27.75;25.00;;;;;13.51;56.68;102264.25;5039726;28;45269;-67
2022/04/29 05:20:10;;;;;;;;;35.00;32.50;;;;;13.56;56.74;102265.03;5040093;28;45462;-68
2022/04/29 05:22:35;;;;;;;;;37.00;31.25;;;;;13.58;56.41;102265.88;5039858;28;45256;-69
2022/04/29 05:25:01;;;;;;;;;41.00;33.50;;;;;13.58;56.17;102264.13;5039474;28;46207;-68
2022/04/29 05:27:27;;;;;;;;;44.00;30.50;;;;;13.56;56.26;102268.50;5039824;28;45277;-69
2022/04/29 05:29:52;;;;;;;;;38.00;29.75;;;;;13.56;55.95;102258.06;5039622;28;45311;-65
2022/04/29 05:32:18;;;;;;;;;34.00;30.00;;;;;13.53;56.71;102270.31;5038057;28;45265;-66
2022/04/29 05:34:44;;;;;;;;;42.75;31.25;;;;;13.53;56.65;102272.91;5039709;28;45491;-66
2022/04/29 05:37:10;;;;;;;;;43.50;32.00;;;;;13.56;56.12;102270.25;5039326;28;45369;-66
2022/04/29 05:42:22;;;;;;;;;30.50;23.00;;;;;13.59;56.13;102281.50;5037573;28;45506;-71
2022/04/29 05:44:48;;;;;;;;;32.25;29.25;;;;;13.56;56.44;102276.34;5039370;28;45575;-72
2022/04/29 05:47:14;;;;;;;;;43.50;30.50;;;;;13.57;56.36;102275.47;5039309;28;45372;-73
2022/04/29 05:49:39;;;;;;;;;34.00;27.25;;;;;13.61;56.60;102271.91;5039533;28;45282;-74
2022/04/29 05:52:07;;;;;;;;;35.25;32.00;;;;;13.65;56.10;102278.84;5039019;28;45503;-74
2022/04/29 05:54:33;;;;;;;;;41.00;32.00;;;;;13.69;56.33;102290.09;5038785;28;46916;-74
2022/04/29 05:56:59;;;;;;;;;39.25;32.50;;;;;13.68;56.27;102291.84;5039201;28;45740;-74
2022/04/29 05:59:24;;;;;;;;;47.75;31.75;;;;;13.75;56.47;102299.56;5038833;28;45518;-73
2022/04/29 06:01:50;;;;;;;;;41.00;34.00;;;;;13.81;56.13;102299.47;5038284;28;45321;-74
2022/04/29 06:04:16;;;;;;;;;45.50;33.50;;;;;13.84;56.41;102309.91;5045434;28;46110;-74
2022/04/29 06:06:41;;;;;;;;;44.25;35.50;;;;;13.81;56.11;102304.69;5040687;28;46355;-73
2022/04/29 06:09:07;;;;;;;;;39.75;30.00;;;;;13.85;56.19;102315.09;5039042;28;45437;-74
2022/04/29 06:11:32;;;;;;;;;44.25;36.00;;;;;13.85;56.36;102309.00;5037663;28;45883;-74
2022/04/29 06:13:57;;;;;;;;;32.50;27.50;;;;;13.79;56.82;102315.19;5038798;28;45350;-74
2022/04/29 06:16:23;;;;;;;;;43.50;33.50;;;;;13.78;56.38;102312.59;5039217;28;45411;-74
2022/04/29 06:18:48;;;;;;;;;35.25;30.50;;;;;13.77;56.31;102310.88;5038937;28;45237;-73
2022/04/29 06:21:16;;;;;;;;;43.25;33.00;;;;;13.83;55.93;102313.41;5039334;28;45501;-72
2022/04/29 06:23:42;;;;;;;;;41.50;33.50;;;;;13.85;56.54;102317.72;5039002;28;46583;-74
2022/04/29 06:26:07;;;;;;;;;35.75;33.25;;;;;13.88;56.74;102316.81;5039087;28;46484;-73
2022/04/29 06:28:33;;;;;;;;;43.50;33.75;;;;;13.89;57.01;102321.13;5038454;28;45263;-74
2022/04/29 06:30:58;;;;;;;;;47.75;36.25;;;;;13.88;56.41;102315.03;5038654;28;45395;-74
2022/04/29 06:33:23;;;;;;;;;42.00;30.50;;;;;13.88;56.62;102322.03;5038458;28;45481;-74
2022/04/29 06:35:50;;;;;;;;;42.25;34.75;;;;;13.87;57.22;102326.38;5038487;28;45395;-74
2022/04/29 06:38:16;;;;;;;;;41.00;34.00;;;;;13.91;57.05;102329.81;5038663;28;45351;-74
2022/04/29 06:40:41;;;;;;;;;43.00;34.25;;;;;13.93;56.78;102328.03;5038737;28;45372;-74
2022/04/29 06:43:07;;;;;;;;;42.50;29.00;;;;;13.88;56.64;102338.56;5038250;28;46114;-74
2022/04/29 06:45:32;;;;;;;;;51.75;36.50;;;;;13.83;57.45;102324.72;5041566;28;45331;-75
2022/04/29 06:47:58;;;;;;;;;45.50;35.75;;;;;13.84;57.10;102320.34;5037091;28;45415;-74
2022/04/29 06:50:23;;;;;;;;;40.25;34.00;;;;;13.86;57.16;102326.41;5038876;28;45335;-73
2022/04/29 06:52:49;;;;;;;;;54.25;36.50;;;;;13.84;57.43;102318.59;5036825;28;47138;-73
2022/04/29 06:55:14;;;;;;;;;43.00;36.50;;;;;13.87;57.50;102315.06;5048747;28;45318;-74
2022/04/29 06:57:39;;;;;;;;;45.50;34.25;;;;;13.90;57.28;102312.41;5038836;28;45635;-74
2022/04/29 07:00:05;;;;;;;;;46.25;36.25;;;;;13.96;56.63;102317.53;5038736;28;45138;-73
2022/04/29 07:02:32;;;;;;;;;45.75;32.50;;;;;13.94;57.25;102324.53;5038224;28;45355;-76
2022/04/29 07:04:59;;;;;;;;;48.25;35.75;;;;;13.95;56.91;102323.63;5038344;28;45751;-76
2022/04/29 07:07:28;;;;;;;;;51.75;35.75;;;;;13.95;56.63;102329.72;5038779;28;45352;-75
2022/04/29 07:09:54;;;;;;;;;44.00;38.25;;;;;13.98;57.13;102331.44;5036959;28;45489;-75
2022/04/29 07:12:20;;;;;;;;;45.00;37.00;;;;;13.94;56.77;102334.97;5040350;28;45445;-76
2022/04/29 07:14:45;;;;;;;;;41.75;31.00;;;;;13.91;57.11;102343.75;5041867;28;45306;-75
2022/04/29 07:17:10;;;;;;;;;50.50;39.25;;;;;13.98;57.48;102355.81;5042054;28;45494;-75
2022/04/29 07:19:39;;;;;;;;;51.50;39.75;;;;;14.03;57.30;102345.31;5041999;28;45410;-75
2022/04/29 07:22:05;;;;;;;;;52.50;37.50;;;;;14.14;58.06;102348.59;5041765;28;46188;-75
2022/04/29 07:24:31;;;;;;;;;52.25;40.00;;;;;14.10;57.37;102335.59;5041499;28;46493;-74
2022/04/29 07:26:57;;;;;;;;;51.25;39.50;;;;;14.13;58.29;102336.41;5041778;28;45334;-75
2022/04/29 07:29:22;;;;;;;;;46.75;37.50;;;;;14.12;58.81;102334.69;5041773;28;45290;-75
2022/04/29 07:31:48;;;;;;;;;58.50;41.50;;;;;14.14;58.61;102342.50;5040286;28;48286;-75
2022/04/29 07:34:13;;;;;;;;;56.75;41.50;;;;;14.15;58.26;102337.25;5042047;28;45319;-75
2022/04/29 07:42:07;;;;;;;;;54.50;40.50;;;;;14.09;59.63;102347.81;5037944;28;45859;-73
2022/04/29 07:44:33;;;;;;;;;56.75;41.25;;;;;14.08;59.29;102348.69;5050855;28;45319;-73
2022/04/29 07:46:59;;;;;;;;;54.75;42.75;;;;;14.08;58.66;102343.47;5047828;28;45337;-73
2022/04/29 07:49:25;;;;;;;;;61.75;44.50;;;;;14.19;58.77;102352.00;5045822;28;46108;-73
2022/04/29 07:51:50;;;;;;;;;59.75;43.00;;;;;14.29;58.62;102345.72;5041225;28;45248;-72
2022/04/29 07:54:16;;;;;;;;;62.25;45.00;;;;;14.40;58.95;102337.69;5039960;28;45347;-73
2022/04/29 07:56:41;;;;;;;;;59.75;46.00;;;;;14.45;58.44;102348.13;5039519;28;45605;-74
2022/04/29 07:59:06;;;;;;;;;63.00;47.00;;;;;14.51;58.15;102351.47;5041149;28;45225;-75
2022/04/29 08:01:34;;;;;;;;;48.25;35.75;;;;;14.57;58.28;102345.25;5041044;28;45392;-76
2022/04/29 08:04:00;;;;;;;;;52.75;41.50;;;;;14.63;57.75;102339.94;5044520;28;45411;-75
2022/04/29 08:06:26;;;;;;;;;54.75;39.50;;;;;14.68;57.95;102353.78;5042571;28;45358;-75
2022/04/29 08:08:52;;;;;;;;;57.50;43.50;;;;;14.72;58.09;102354.59;5040756;28;45457;-74
2022/04/29 08:11:18;;;;;;;;;58.50;41.00;;;;;14.79;57.68;102346.56;5041112;28;45956;-75
2022/04/29 08:13:44;;;;;;;;;53.50;42.50;;;;;14.91;57.14;102342.88;5040848;28;45408;-75
2022/04/29 08:16:10;;;;;;;;;62.50;44.75;;;;;15.02;57.15;102359.25;5041322;28;45504;-73
2022/04/29 08:18:35;;;;;;;;;54.25;42.00;;;;;15.05;57.32;102353.06;5040836;28;45212;-73
2022/04/29 08:21:01;;;;;;;;;57.50;45.00;;;;;15.18;57.31;102359.75;5040984;28;45653;-73
2022/04/29 08:23:26;;;;;;;;;59.25;47.25;;;;;15.33;57.11;102359.44;5040049;28;45262;-74
2022/04/29 08:25:52;;;;;;;;;60.25;48.00;;;;;15.41;56.71;102352.28;5040692;28;45414;-74
2022/04/29 08:28:18;;;;;;;;;52.25;43.25;;;;;15.49;56.48;102357.38;5040581;28;45253;-74
2022/04/29 08:30:44;;;;;;;;;52.25;41.75;;;;;15.54;56.49;102358.13;5039279;28;48045;-73
2022/04/29 08:33:14;;;;;;;;;60.25;47.50;;;;;15.63;56.51;102351.84;5040838;28;45483;-74
2022/04/29 08:35:40;;;;;;;;;59.75;45.75;;;;;15.74;56.13;102353.31;5037503;28;45331;-75
2022/04/29 08:38:10;;;;;;;;;49.75;38.75;;;;;15.79;55.73;102356.69;5041035;28;45277;-76
2022/04/29 08:40:41;;;;;;;;;59.75;45.25;;;;;15.81;55.17;102351.41;5040482;28;45430;-74
2022/04/29 08:43:07;;;;;;;;;56.00;43.50;;;;;15.85;55.57;102353.09;5039112;28;45917;-74
2022/04/29 08:45:32;;;;;;;;;55.50;41.75;;;;;15.91;55.05;102355.56;5040910;28;45470;-74
2022/04/29 08:47:59;;;;;;;;;55.50;41.25;;;;;15.93;54.99;102355.50;5040327;28;45281;-75
2022/04/29 08:50:26;;;;;;;;;56.75;43.75;;;;;16.00;54.78;102365.81;5040217;28;45506;-75
2022/04/29 08:52:53;;;;;;;;;57.25;42.50;;;;;16.05;54.90;102360.47;5040388;28;45315;-75
2022/04/29 09:00:48;;;;;;;;;57.50;44.75;;;;;16.53;53.61;102357.50;5040308;28;45764;-75
2022/04/29 09:03:14;;;;;;;;;52.25;38.75;;;;;16.60;53.65;102357.28;5043688;28;45509;-75
2022/04/29 09:05:40;;;;;;;;;59.50;46.50;;;;;16.69;53.44;102364.94;5044043;28;45233;-74
2022/04/29 09:08:06;;;;;;;;;57.00;44.50;;;;;16.82;53.12;102354.09;5040303;28;45493;-73
2022/04/29 09:10:34;;;;;;;;;54.00;43.50;;;;;16.99;53.12;102350.09;5040165;28;46493;-74
2022/04/29 09:13:14;;;;;;;;;52.25;39.25;;;;;17.23;52.10;102340.66;5040169;28;45382;-74
2022/04/29 09:15:51;;;;;;;;;52.25;37.00;;;;;17.42;51.76;102345.34;5039054;28;45358;-74
2022/04/29 09:18:39;;;;;;;;;56.00;41.75;;;;;17.51;51.24;102332.78;5040009;28;45562;-73
2022/04/29 09:21:07;;;;;;;;;49.00;39.25;;;;;17.63;51.02;102344.72;5036696;28;45485;-74
2022/04/29 09:23:35;;;;;;;;;52.75;41.25;;;;;17.77;50.75;102355.66;5040059;28;45789;-73
2022/04/29 09:26:05;;;;;;;;;52.75;37.50;;;;;17.88;50.63;102344.81;5040316;28;45251;-74
2022/04/29 09:28:32;;;;;;;;;55.00;41.00;;;;;18.07;50.59;102342.44;5038377;28;45911;-73
2022/04/29 09:30:58;;;;;;;;;54.75;41.25;;;;;18.26;49.93;102343.56;5039710;28;46155;-74
2022/04/29 09:33:25;;;;;;;;;54.75;41.50;;;;;18.39;49.61;102344.81;5039522;28;45320;-74
2022/04/29 09:35:52;;;;;;;;;43.25;36.25;;;;;18.44;48.38;102335.03;5039657;28;45344;-73
2022/04/29 09:41:03;;;;;;;;;52.25;40.25;;;;;18.68;48.47;102343.00;5039835;28;45790;-73
2022/04/29 09:43:44;;;;;;;;;51.75;40.00;;;;;18.77;48.55;102332.13;5039407;28;45414;-71
2022/04/29 09:46:13;;;;;;;;;53.50;40.00;;;;;18.85;47.72;102335.34;5038502;28;45483;-72
2022/04/29 09:48:51;;;;;;;;;52.25;40.25;;;;;18.96;48.41;102327.91;5037066;28;45511;-72
2022/04/29 09:51:39;;;;;;;;;56.50;43.50;;;;;19.16;46.90;102327.16;5038977;28;45408;-76
2022/04/29 09:54:17;;;;;;;;;50.00;39.50;;;;;19.23;46.73;102327.78;5038989;28;45405;-74
2022/04/29 09:57:01;;;;;;;;;52.50;41.00;;;;;19.27;46.53;102330.25;5037032;28;45292;-74
2022/04/29 09:59:36;;;;;;;;;51.25;39.25;;;;;19.29;45.48;102319.63;5038568;28;45442;-73
2022/04/29 10:02:02;;;;;;;;;52.50;40.75;;;;;19.37;45.68;102323.69;5038551;28;45501;-72
2022/04/29 10:04:34;;;;;;;;;48.00;38.25;;;;;19.52;45.85;102324.88;5043005;28;45885;-72
2022/04/29 10:07:03;;;;;;;;;50.00;40.75;;;;;19.63;44.99;102324.50;5038539;28;45282;-73
2022/04/29 10:09:32;;;;;;;;;47.25;36.50;;;;;19.61;45.69;102324.53;5037996;28;45300;-73
2022/04/29 10:11:59;;;;;;;;;57.25;40.50;;;;;19.64;46.06;102327.06;5038035;28;46507;-72
2022/04/29 10:14:28;;;;;;;;;48.25;38.25;;;;;19.76;45.58;102325.69;5033058;28;45458;-74
2022/04/29 10:22:44;;;;;;;;;45.00;35.50;;;;;19.87;44.17;102333.19;5035914;28;45347;-73
2022/04/29 10:25:11;;;;;;;;;44.75;35.75;;;;;19.80;44.99;102319.34;5038934;28;45409;-72
2022/04/29 10:27:39;;;;;;;;;48.25;40.00;;;;;19.75;44.72;102335.38;5039000;28;45253;-72
2022/04/29 10:30:05;;;;;;;;;48.75;39.25;;;;;19.71;44.78;102325.88;5038574;28;45320;-71
2022/04/29 10:32:59;;;;;;;;;53.00;38.50;;;;;19.66;44.51;102319.94;5037556;28;46932;-73
2022/04/29 10:35:43;;;;;;;;;49.00;39.00;;;;;19.69;45.48;102332.16;5038605;28;45490;-74
2022/04/29 10:38:18;;;;;;;;;39.50;33.50;;;;;19.79;44.01;102327.34;5039011;28;45486;-72
2022/04/29 10:40:48;;;;;;;;;36.25;30.00;;;;;19.84;42.97;102323.63;5038658;28;45371;-72
2022/04/29 10:43:15;;;;;;;;;53.00;40.25;;;;;19.90;43.27;102327.78;5038602;28;45389;-72
2022/04/29 10:46:05;;;;;;;;;51.75;38.25;;;;;19.97;42.03;102323.94;5038905;28;45351;-73
2022/04/29 10:48:50;;;;;;;;;48.50;38.00;;;;;19.97;42.50;102318.66;5041976;28;45272;-74
2022/04/29 10:51:19;;;;;;;;;50.50;39.75;;;;;20.12;42.82;102307.47;5042256;28;45279;-74
2022/04/29 10:53:50;;;;;;;;;43.25;33.75;;;;;20.15;43.19;102317.91;5042078;28;46454;-72
2022/04/29 10:56:30;;;;;;;;;47.50;38.75;;;;;20.10;42.56;102309.31;5041976;28;45287;-74
2022/04/29 10:59:11;;;;;;;;;49.25;38.25;;;;;20.12;42.38;102312.75;5042503;28;45310;-73
2022/04/29 11:01:38;;;;;;;;;42.75;35.00;;;;;20.15;42.20;102314.41;5042079;28;45533;-74
2022/04/29 11:04:06;;;;;;;;;48.25;37.50;;;;;20.16;42.23;102309.06;5041838;28;46554;-74
2022/04/29 11:06:37;;;;;;;;;45.00;37.75;;;;;20.10;42.05;102304.03;5040665;28;45808;-74
2022/04/29 11:09:22;;;;;;;;;44.00;35.00;;;;;20.07;42.08;102317.38;5042057;28;45240;-73
2022/04/29 11:11:48;;;;;;;;;45.75;35.75;;;;;20.09;41.69;102309.41;5040604;28;45724;-74
2022/04/29 11:14:13;;;;;;;;;49.75;39.50;;;;;20.12;42.47;102315.41;5041990;28;46577;-73
2022/04/29 11:16:58;;;;;;;;;48.75;39.00;;;;;20.12;41.35;102314.53;5041790;28;45434;-72
2022/04/29 11:19:27;;;;;;;;;45.00;36.25;;;;;20.16;42.49;102314.34;5041726;28;45272;-73
2022/04/29 11:24:49;;;;;;;;;43.50;36.00;;;;;20.25;41.55;102298.13;5049303;28;45371;-73
2022/04/29 11:27:28;;;;;;;;;38.75;35.00;;;;;20.16;41.76;102311.69;5044345;28;45387;-74
2022/04/29 11:30:02;;;;;;;;;46.00;36.25;;;;;20.15;41.98;102307.34;5045664;28;45272;-72
2022/04/29 11:32:29;;;;;;;;;44.75;35.50;;;;;20.21;41.46;102295.66;5039121;28;45265;-75
2022/04/29 11:35:04;;;;;;;;;40.75;32.25;;;;;20.25;41.42;102298.13;5041694;28;46231;-67
2022/04/29 11:37:33;;;;;;;;;48.25;37.00;;;;;20.36;41.64;102305.56;5041440;28;45786;-69